createdAt,value
2019-02-21T00:00:04.632Z,71.05
2019-02-21T00:02:36.820Z,70.95
2019-02-21T00:05:25.585Z,70.48
2019-02-21T00:08:07.651Z,71.40
2019-02-21T00:10:38.979Z,71.51
2019-02-21T00:13:16.886Z,71.33
2019-02-21T00:16:06.295Z,70.72
2019-02-21T00:18:42.758Z,71.37
2019-02-21T00:21:13.993Z,71.15
2019-02-21T00:24:05.344Z,71.56
2019-02-21T00:27:02.433Z,71.93
2019-02-21T00:29:37.548Z,72.53
2019-02-21T00:32:12.190Z,72.56
2019-02-21T00:34:43.746Z,72.97
2019-02-21T00:37:26.536Z,73.11
2019-02-21T00:40:30.157Z,73.47
2019-02-21T00:42:58.719Z,73.64
2019-02-21T00:45:42.935Z,73.78
2019-02-21T00:48:14.768Z,73.61
2019-02-21T00:50:56.646Z,73.51
2019-02-21T00:53:42.259Z,73.84
2019-02-21T00:56:12.566Z,74.01
2019-02-21T00:58:54.025Z,73.98
2019-02-21T01:01:23.290Z,73.95
2019-02-21T01:03:54.465Z,73.25
2019-02-21T01:06:25.856Z,74.34
2019-02-21T01:09:04.299Z,73.95
2019-02-21T01:11:42.251Z,74.16
2019-02-21T01:14:35.050Z,74.33
2019-02-21T01:17:10.094Z,74.47
2019-02-21T01:19:43.118Z,74.40
2019-02-21T01:22:14.707Z,74.52
2019-02-21T01:24:50.206Z,74.34
2019-02-21T01:27:20.656Z,74.49
2019-02-21T01:29:49.696Z,74.68
2019-02-21T01:32:38.284Z,74.07
2019-02-21T01:38:12.630Z,74.50
2019-02-21T01:41:00.900Z,74.93
2019-02-21T01:43:36.997Z,74.36
2019-02-21T01:46:09.483Z,74.74
2019-02-21T01:48:38.837Z,74.66
2019-02-21T01:51:08.068Z,74.65
2019-02-21T01:53:37.726Z,74.62
2019-02-21T01:56:31.031Z,75.49
2019-02-21T01:59:01.752Z,75.32
2019-02-21T02:01:51.104Z,75.21
2019-02-21T02:04:23.016Z,75.13
2019-02-21T02:07:01.067Z,75.25
2019-02-21T02:09:30.882Z,75.37
2019-02-21T02:12:06.485Z,75.86
2019-02-21T02:14:36.028Z,75.97
2019-02-21T02:17:05.904Z,75.81
2019-02-21T02:20:00.687Z,75.53
2019-02-21T02:22:27.517Z,76.08
2019-02-21T02:24:56.653Z,75.82
2019-02-21T02:27:28.660Z,76.18
2019-02-21T02:29:58.108Z,76.34
2019-02-21T02:32:30.969Z,76.30
2019-02-21T02:35:05.174Z,75.89
2019-02-21T02:37:46.826Z,75.19
2019-02-21T02:40:38.739Z,75.98
2019-02-21T02:44:07.608Z,76.16
2019-02-21T02:47:29.663Z,76.42
2019-02-21T02:50:00.971Z,76.65
2019-02-21T02:52:43.429Z,76.06
2019-02-21T02:55:24.699Z,77.32
2019-02-21T02:57:58.595Z,77.13
2019-02-21T03:00:37.664Z,77.87
2019-02-21T03:03:24.925Z,77.29
2019-02-21T03:06:18.249Z,77.57
2019-02-21T03:08:47.666Z,77.41
2019-02-21T03:11:17.657Z,78.13
2019-02-21T03:13:59.351Z,78.57
2019-02-21T03:16:57.565Z,77.92
2019-02-21T03:19:44.114Z,78.12
2019-02-21T03:22:29.747Z,77.26
2019-02-21T03:24:59.316Z,78.19
2019-02-21T03:27:34.663Z,78.57
2019-02-21T03:30:12.108Z,78.87
2019-02-21T03:32:44.401Z,79.25
2019-02-21T03:37:57.454Z,78.88
2019-02-21T03:40:36.511Z,79.33
2019-02-21T03:43:09.225Z,79.06
2019-02-21T03:45:39.070Z,79.28
2019-02-21T03:48:14.194Z,79.53
2019-02-21T03:50:54.715Z,79.15
2019-02-21T03:53:58.097Z,78.83
2019-02-21T03:56:25.402Z,78.24
2019-02-21T03:59:03.715Z,79.40
2019-02-21T04:01:36.137Z,79.00
2019-02-21T04:04:10.040Z,78.76
2019-02-21T04:06:40.216Z,79.50
2019-02-21T04:09:09.877Z,79.88
2019-02-21T04:11:43.415Z,78.48
2019-02-21T04:14:15.057Z,79.43
2019-02-21T04:16:51.151Z,79.28
2019-02-21T04:19:26.082Z,79.28
2019-02-21T04:21:58.292Z,79.67
2019-02-21T04:24:27.589Z,78.89
2019-02-21T04:27:05.848Z,79.25
2019-02-21T04:29:46.586Z,79.55
2019-02-21T04:32:40.003Z,79.49
2019-02-21T04:35:15.455Z,79.12
2019-02-21T04:37:44.660Z,79.39
2019-02-21T04:40:13.815Z,79.62
2019-02-21T04:42:45.691Z,79.03
2019-02-21T04:45:14.965Z,78.89
2019-02-21T04:47:44.751Z,78.97
2019-02-21T04:50:17.012Z,79.85
2019-02-21T04:52:49.698Z,79.59
2019-02-21T04:55:19.198Z,79.57
2019-02-21T04:57:48.545Z,79.53
2019-02-21T05:00:30.068Z,79.00
2019-02-21T05:03:12.790Z,79.38
2019-02-21T05:06:04.478Z,79.11
2019-02-21T05:08:34.246Z,79.40
2019-02-21T05:11:04.223Z,78.20
2019-02-21T05:13:38.450Z,78.85
2019-02-21T05:16:14.313Z,77.42
2019-02-21T05:18:49.403Z,76.47
2019-02-21T05:21:18.744Z,77.91
2019-02-21T05:23:51.023Z,78.19
2019-02-21T05:26:25.912Z,78.37
2019-02-21T05:28:55.787Z,78.18
2019-02-21T05:31:56.455Z,78.44
2019-02-21T05:34:37.022Z,79.67
2019-02-21T05:37:34.902Z,79.54
2019-02-21T05:40:30.447Z,80.19
2019-02-21T05:43:31.196Z,79.99
2019-02-21T05:46:08.242Z,80.02
2019-02-21T05:50:01.572Z,79.58
2019-02-21T05:51:48.191Z,79.78
2019-02-21T05:54:36.852Z,79.94
2019-02-21T05:57:42.603Z,80.80
2019-02-21T06:00:31.914Z,80.42
2019-02-21T06:03:09.843Z,80.34
2019-02-21T06:05:46.271Z,79.90
2019-02-21T06:08:37.980Z,80.47
2019-02-21T06:11:29.550Z,79.74
2019-02-21T06:14:19.811Z,80.07
2019-02-21T06:17:34.054Z,81.10
2019-02-21T06:20:33.820Z,79.29
2019-02-21T06:23:26.470Z,80.50
2019-02-21T06:26:34.549Z,79.86
2019-02-21T06:29:34.160Z,80.29
2019-02-21T06:32:14.157Z,80.54
2019-02-21T06:35:09.355Z,81.19
2019-02-21T06:37:53.812Z,80.89
2019-02-21T06:40:27.393Z,80.87
2019-02-21T06:43:11.497Z,80.63
2019-02-21T06:45:57.832Z,80.72
2019-02-21T06:51:49.585Z,81.17
2019-02-21T06:55:21.347Z,80.88
2019-02-21T06:58:03.535Z,80.65
2019-02-21T07:00:46.734Z,80.81
2019-02-21T07:03:31.927Z,80.32
2019-02-21T07:06:31.834Z,80.54
2019-02-21T07:09:03.532Z,80.34
2019-02-21T07:11:35.817Z,80.65
2019-02-21T07:14:13.509Z,80.50
2019-02-21T07:17:24.451Z,80.36
2019-02-21T07:20:15.482Z,80.28
2019-02-21T07:23:12.837Z,79.87
2019-02-21T07:26:42.825Z,79.44
2019-02-21T07:28:27.831Z,79.52
2019-02-21T07:31:35.346Z,79.58
2019-02-21T07:34:32.041Z,79.83
2019-02-21T07:37:18.849Z,79.68
2019-02-21T07:39:51.044Z,78.20
2019-02-21T07:42:30.608Z,79.11
2019-02-21T07:45:27.238Z,78.82
2019-02-21T07:48:01.670Z,79.20
2019-02-21T07:50:43.992Z,78.75
2019-02-21T07:56:41.515Z,76.99
2019-02-21T07:59:12.040Z,78.00
2019-02-21T08:01:41.575Z,78.14
2019-02-21T08:04:18.906Z,77.82
2019-02-21T08:07:01.499Z,77.55
2019-02-21T08:09:38.002Z,78.04
2019-02-21T08:12:17.233Z,77.53
2019-02-21T08:15:04.548Z,77.26
2019-02-21T08:17:41.078Z,77.39
2019-02-21T08:20:11.184Z,77.90
2019-02-21T08:22:49.113Z,77.55
2019-02-21T08:25:20.691Z,77.64
2019-02-21T08:28:02.306Z,77.79
2019-02-21T08:30:37.943Z,77.85
2019-02-21T08:33:34.139Z,77.56
2019-02-21T08:36:15.069Z,77.58
2019-02-21T08:38:56.538Z,77.49
2019-02-21T08:41:55.275Z,77.18
2019-02-21T08:44:28.695Z,75.40
2019-02-21T08:46:59.871Z,76.19
2019-02-21T08:49:29.064Z,76.33
2019-02-21T08:51:58.330Z,74.58
2019-02-21T08:54:30.502Z,76.10
2019-02-21T08:57:06.913Z,75.83
2019-02-21T08:59:42.240Z,76.32
2019-02-21T09:02:27.273Z,76.14
2019-02-21T09:05:05.033Z,75.93
2019-02-21T09:07:46.550Z,76.03
2019-02-21T09:10:27.691Z,75.46
2019-02-21T09:12:59.410Z,72.64
2019-02-21T09:15:40.991Z,72.21
2019-02-21T09:18:22.323Z,71.19
2019-02-21T09:20:58.686Z,70.68
2019-02-21T09:23:37.571Z,70.28
2019-02-21T09:26:21.576Z,69.69
2019-02-21T09:28:48.504Z,69.58
2019-02-21T09:31:33.543Z,69.76
2019-02-21T09:34:20.937Z,70.45
2019-02-21T09:37:08.590Z,70.96
2019-02-21T09:39:42.131Z,70.50
2019-02-21T09:42:22.382Z,70.58
2019-02-21T09:45:01.224Z,69.45
2019-02-21T09:47:45.565Z,67.92
2019-02-21T09:50:28.949Z,63.97
2019-02-21T09:53:04.502Z,61.92
2019-02-21T09:55:53.092Z,63.99
2019-02-21T09:58:34.791Z,63.58
2019-02-21T10:01:26.747Z,63.08
2019-02-21T10:04:19.672Z,62.55
2019-02-21T10:07:11.689Z,63.06
2019-02-21T10:09:49.161Z,62.83
2019-02-21T10:12:38.117Z,62.56
2019-02-21T10:15:13.826Z,62.89
2019-02-21T10:17:52.020Z,62.48
2019-02-21T10:20:28.210Z,62.89
2019-02-21T10:23:15.805Z,62.80
2019-02-21T10:25:59.124Z,62.57
2019-02-21T10:28:48.857Z,62.97
2019-02-21T10:31:21.645Z,63.02
2019-02-21T10:34:00.045Z,63.21
2019-02-21T10:36:57.947Z,62.72
2019-02-21T10:39:28.240Z,62.57
2019-02-21T10:42:16.979Z,62.01
2019-02-21T10:44:45.565Z,61.75
2019-02-21T10:47:30.088Z,62.10
2019-02-21T10:50:27.357Z,61.25
2019-02-21T10:53:04.812Z,61.11
2019-02-21T10:55:48.134Z,61.62
2019-02-21T10:58:29.053Z,61.70
2019-02-21T11:01:14.644Z,61.70
2019-02-21T11:04:02.434Z,60.84
2019-02-21T11:06:42.736Z,62.55
2019-02-21T11:09:42.681Z,62.63
2019-02-21T11:12:15.479Z,61.94
2019-02-21T11:14:57.732Z,61.17
2019-02-21T11:17:40.821Z,60.19
2019-02-21T11:20:28.881Z,59.20
2019-02-21T11:23:20.056Z,55.75
2019-02-21T11:26:08.029Z,56.25
2019-02-21T11:28:47.789Z,56.76
2019-02-21T11:31:27.931Z,56.74
2019-02-21T11:34:05.086Z,56.66
2019-02-21T11:36:48.728Z,57.69
2019-02-21T11:39:30.995Z,58.43
2019-02-21T11:42:13.443Z,59.43
2019-02-21T11:44:53.634Z,60.57
2019-02-21T11:47:31.139Z,61.84
2019-02-21T11:50:06.577Z,62.04
2019-02-21T11:52:40.947Z,62.31
2019-02-21T11:55:35.157Z,62.17
2019-02-21T11:58:08.213Z,61.12
2019-02-21T12:00:40.648Z,60.40
2019-02-21T12:03:40.455Z,59.39
2019-02-21T12:06:27.144Z,60.10
2019-02-21T12:09:04.160Z,59.26
2019-02-21T12:12:03.561Z,59.08
2019-02-21T12:14:42.539Z,57.50
2019-02-21T12:17:31.139Z,57.06
2019-02-21T12:20:08.996Z,58.71
2019-02-21T12:23:03.502Z,59.35
2019-02-21T12:25:50.955Z,58.38
2019-02-21T12:28:46.840Z,59.23
2019-02-21T12:31:12.461Z,60.12
2019-02-21T12:33:48.891Z,59.18
2019-02-21T12:36:26.482Z,59.66
2019-02-21T12:39:02.279Z,60.34
2019-02-21T12:41:44.015Z,60.78
2019-02-21T12:44:20.068Z,61.67
2019-02-21T12:47:01.961Z,62.19
2019-02-21T12:49:44.066Z,62.35
2019-02-21T12:52:23.816Z,63.11
2019-02-21T12:55:05.662Z,63.44
2019-02-21T12:57:38.953Z,63.66
2019-02-21T13:00:22.479Z,63.37
2019-02-21T13:03:10.239Z,63.17
2019-02-21T13:05:46.353Z,63.05
2019-02-21T13:08:25.597Z,62.85
2019-02-21T13:11:03.354Z,63.16
2019-02-21T13:13:42.741Z,63.07
2019-02-21T13:16:17.735Z,63.02
2019-02-21T13:18:50.781Z,63.09
2019-02-21T13:21:27.707Z,62.81
2019-02-21T13:24:13.961Z,62.58
2019-02-21T13:26:46.844Z,62.74
2019-02-21T13:29:29.393Z,62.71
2019-02-21T13:32:06.357Z,62.75
2019-02-21T13:34:43.935Z,62.06
2019-02-21T13:37:43.908Z,63.12
2019-02-21T13:40:21.017Z,63.10
2019-02-21T13:42:51.028Z,63.39
2019-02-21T13:45:29.577Z,61.71
2019-02-21T13:48:05.092Z,62.72
2019-02-21T13:50:33.100Z,62.34
2019-02-21T13:53:10.320Z,62.83
2019-02-21T13:55:54.938Z,62.74
2019-02-21T13:58:34.749Z,62.16
2019-02-21T14:01:14.508Z,62.44
2019-02-21T14:03:50.265Z,63.05
2019-02-21T14:06:39.207Z,63.03
2019-02-21T14:09:19.982Z,62.41
2019-02-21T14:12:00.469Z,61.91
2019-02-21T14:14:32.525Z,62.75
2019-02-21T14:17:07.179Z,63.27
2019-02-21T14:19:48.652Z,63.41
2019-02-21T14:22:27.433Z,63.15
2019-02-21T14:25:07.249Z,63.02
2019-02-21T14:27:38.873Z,63.11
2019-02-21T14:30:12.009Z,63.12
2019-02-21T14:32:46.580Z,63.52
2019-02-21T14:35:17.641Z,63.09
2019-02-21T14:37:51.035Z,63.68
2019-02-21T14:40:35.003Z,63.45
2019-02-21T14:43:05.512Z,63.31
2019-02-21T14:45:47.566Z,64.37
2019-02-21T14:48:27.995Z,65.97
2019-02-21T14:51:07.406Z,66.85
2019-02-21T14:53:54.913Z,67.52
2019-02-21T14:56:31.542Z,67.63
2019-02-21T14:59:33.689Z,68.17
2019-02-21T15:02:24.545Z,68.72
2019-02-21T15:05:09.772Z,68.74
2019-02-21T15:07:41.879Z,67.68
2019-02-21T15:10:15.653Z,66.73
2019-02-21T15:13:05.937Z,66.76
2019-02-21T15:15:42.091Z,67.03
2019-02-21T15:18:17.783Z,66.94
2019-02-21T15:20:53.624Z,67.03
2019-02-21T15:23:45.288Z,66.53
2019-02-21T15:26:37.499Z,66.50
2019-02-21T15:29:11.564Z,66.59
2019-02-21T15:31:49.597Z,66.35
2019-02-21T15:34:16.838Z,66.87
2019-02-21T15:36:55.201Z,66.87
2019-02-21T15:39:43.648Z,66.97
2019-02-21T15:42:30.219Z,67.33
2019-02-21T15:45:21.894Z,66.75
2019-02-21T15:47:45.463Z,67.71
2019-02-21T15:50:30.278Z,67.83
2019-02-21T15:52:56.489Z,68.02
2019-02-21T15:55:26.471Z,68.30
2019-02-21T15:58:04.681Z,69.13
2019-02-21T16:00:39.816Z,69.41
2019-02-21T16:03:19.553Z,69.85
2019-02-21T16:05:58.252Z,70.45
2019-02-21T16:08:42.640Z,70.90
2019-02-21T16:11:17.501Z,71.63
2019-02-21T23:01:57.778Z,88.37
2019-02-21T23:04:57.141Z,88.76
2019-02-21T23:07:51.570Z,88.56
2019-02-21T23:10:25.851Z,88.61
2019-02-21T23:13:05.515Z,88.84
2019-02-21T23:15:33.540Z,88.37
2019-02-21T23:18:05.435Z,89.13
2019-02-21T23:20:36.627Z,88.90
2019-02-21T23:23:06.199Z,88.95
2019-02-21T23:25:43.206Z,89.23
2019-02-21T23:28:14.399Z,89.25
2019-02-21T23:30:43.807Z,88.81
2019-02-21T23:33:18.182Z,89.34
2019-02-21T23:35:58.596Z,87.28
2019-02-21T23:38:31.469Z,88.55
2019-02-21T23:41:08.951Z,88.30
2019-02-21T23:43:43.466Z,88.33
2019-02-21T23:46:12.778Z,88.22
2019-02-21T23:48:42.388Z,88.06
2019-02-21T23:51:35.100Z,88.09
2019-02-21T23:54:18.229Z,87.81
2019-02-21T23:56:50.231Z,86.42
2019-02-21T23:59:24.203Z,87.79
